Grizzly, Oregon
Current Conditions -  °F | °C
As of 1:55 PM on Tuesday 25 Nov 2014 (Local Time) from KS39 Reporting Station
Scattered Clouds Scattered Clouds  
Wind Chill: 57°   Ceiling: Unl
Heat Index: 57°   Visibility: 10mi
Dew Point: 43°   Wind: 12mph
Humidity: 59%   Direction: 230°SW
Pressure: 30.33"   Gusts: NA
Location:  44.5°N, 120.92°W
Report Text: KS39 252155Z AUTO 23010KT 10SM FEW040 SCT050 14/06 A3033 RMK AO2
Loading
Personal Weather Stations






























Interactive Weather Map New forecast layout! Learn more

10-Day Weather Forecast

Advertisements
Track Severe Weather on mobile